createdAt,value
2023-03-22T00:01:36.654Z,96686.22
2023-03-22T00:04:03.500Z,96681.50
2023-03-22T00:06:30.026Z,96678.97
2023-03-22T00:08:56.920Z,96666.25
2023-03-22T00:11:26.763Z,96671.00
2023-03-22T00:13:53.722Z,96670.63
2023-03-22T00:16:21.147Z,96663.47
2023-03-22T00:18:47.620Z,96660.69
2023-03-22T00:21:15.773Z,96657.03
2023-03-22T00:23:42.796Z,96660.78
2023-03-22T00:26:10.729Z,96659.59
2023-03-22T00:28:37.326Z,96657.59
2023-03-22T00:31:04.812Z,96649.06
2023-03-22T00:33:32.901Z,96651.00
2023-03-22T00:36:02.403Z,96661.25
2023-03-22T00:38:42.366Z,96655.75
2023-03-22T00:41:16.203Z,96658.06
2023-03-22T00:43:43.137Z,96658.09
2023-03-22T00:46:11.202Z,96651.66
2023-03-22T00:48:38.105Z,96652.97
2023-03-22T00:51:05.476Z,96654.72
2023-03-22T00:53:36.493Z,96650.22
2023-03-22T00:56:04.398Z,96650.75
2023-03-22T00:58:31.336Z,96650.59
2023-03-22T01:00:57.962Z,96641.75
2023-03-22T01:03:24.780Z,96634.44
2023-03-22T01:05:56.414Z,96626.94
2023-03-22T01:08:23.954Z,96635.16
2023-03-22T01:10:51.198Z,96636.47
2023-03-22T01:13:18.184Z,96639.34
2023-03-22T01:15:44.943Z,96642.66
2023-03-22T01:18:11.489Z,96632.78
2023-03-22T01:20:38.368Z,96641.47
2023-03-22T01:23:05.128Z,96635.91
2023-03-22T01:25:31.569Z,96632.66
2023-03-22T01:27:57.990Z,96631.56
2023-03-22T01:30:24.736Z,96633.13
2023-03-22T01:32:51.328Z,96622.56
2023-03-22T01:35:17.965Z,96627.16
2023-03-22T01:37:44.426Z,96617.59
2023-03-22T01:40:12.882Z,96621.19
2023-03-22T01:42:39.368Z,96611.00
2023-03-22T01:45:14.912Z,96611.84
2023-03-22T01:47:46.463Z,96604.59
2023-03-22T01:50:13.436Z,96608.72
2023-03-22T01:52:41.180Z,96610.78
2023-03-22T01:55:09.375Z,96606.94
2023-03-22T01:57:39.293Z,96602.59
2023-03-22T02:00:10.846Z,96596.97
2023-03-22T02:02:37.448Z,96590.94
2023-03-22T02:05:05.336Z,96597.97
2023-03-22T02:07:32.164Z,96593.88
2023-03-22T02:09:59.323Z,96588.34
2023-03-22T02:12:42.473Z,96590.94
2023-03-22T02:15:24.874Z,96587.31
2023-03-22T02:18:27.693Z,96585.66
2023-03-22T02:21:12.124Z,96590.53
2023-03-22T02:23:48.604Z,96592.53
2023-03-22T02:26:33.317Z,96591.56
2023-03-22T02:29:12.643Z,96582.91
2023-03-22T02:32:03.788Z,96589.81
2023-03-22T02:34:43.741Z,96581.31
2023-03-22T02:37:28.312Z,96586.09
2023-03-22T02:40:05.520Z,96584.25
2023-03-22T02:43:00.184Z,96579.84
2023-03-22T02:45:41.804Z,96573.63
2023-03-22T02:48:19.862Z,96587.38
2023-03-22T02:51:07.254Z,96565.94
2023-03-22T02:53:46.415Z,96572.50
2023-03-22T02:56:41.295Z,96567.59
2023-03-22T02:59:11.467Z,96573.47
2023-03-22T03:01:46.321Z,96574.78
2023-03-22T03:04:28.471Z,96576.75
2023-03-22T03:07:01.847Z,96568.91
2023-03-22T03:09:29.820Z,96570.06
2023-03-22T03:11:56.354Z,96581.50
2023-03-22T03:14:32.699Z,96571.69
2023-03-22T03:17:37.674Z,96571.53
2023-03-22T03:20:12.384Z,96578.53
2023-03-22T03:22:53.950Z,96575.13
2023-03-22T03:25:44.858Z,96569.56
2023-03-22T03:28:22.880Z,96562.53
2023-03-22T03:31:01.063Z,96567.25
2023-03-22T03:33:28.119Z,96562.69
2023-03-22T03:36:03.830Z,96562.03
2023-03-22T03:38:34.391Z,96565.59
2023-03-22T03:41:04.400Z,96568.22
2023-03-22T03:43:33.277Z,96568.81
2023-03-22T03:46:00.614Z,96571.97
2023-03-22T03:48:33.180Z,96576.69
2023-03-22T03:51:01.912Z,96572.75
2023-03-22T03:53:29.231Z,96565.38
2023-03-22T03:55:56.010Z,96565.28
2023-03-22T03:58:22.702Z,96566.09
2023-03-22T04:00:50.223Z,96571.97
2023-03-22T04:03:17.167Z,96569.13
2023-03-22T04:05:44.044Z,96570.78
2023-03-22T04:08:10.642Z,96572.75
2023-03-22T04:10:37.276Z,96583.19
2023-03-22T04:13:04.017Z,96584.84
2023-03-22T04:15:30.592Z,96588.16
2023-03-22T04:17:57.171Z,96589.06
2023-03-22T04:20:26.148Z,96588.88
2023-03-22T04:22:52.717Z,96586.03
2023-03-22T04:25:19.221Z,96584.59
2023-03-22T04:27:50.943Z,96589.00
2023-03-22T04:30:19.608Z,96587.88
2023-03-22T04:32:50.024Z,96588.91
2023-03-22T04:35:16.987Z,96587.00
2023-03-22T04:37:43.662Z,96594.84
2023-03-22T04:40:17.240Z,96590.91
2023-03-22T04:42:45.543Z,96586.47
2023-03-22T04:45:13.156Z,96587.59
2023-03-22T04:47:39.754Z,96586.59
2023-03-22T04:50:07.971Z,96583.44
2023-03-22T04:52:34.456Z,96596.13
2023-03-22T04:55:00.944Z,96591.63
2023-03-22T04:57:27.364Z,96590.63
2023-03-22T04:59:53.870Z,96584.00
2023-03-22T05:02:20.395Z,96589.44
2023-03-22T05:04:46.989Z,96582.41
2023-03-22T05:07:13.420Z,96582.34
2023-03-22T05:09:39.951Z,96586.75
2023-03-22T05:12:06.889Z,96587.13
2023-03-22T05:14:33.459Z,96591.06
2023-03-22T05:16:59.939Z,96582.75
2023-03-22T05:19:26.526Z,96585.34
2023-03-22T05:21:58.709Z,96590.38
2023-03-22T05:24:25.300Z,96597.69
2023-03-22T05:26:54.533Z,96599.44
2023-03-22T05:29:21.491Z,96591.84
2023-03-22T05:31:48.391Z,96596.81
2023-03-22T05:34:14.838Z,96602.53
2023-03-22T05:36:41.250Z,96601.81
2023-03-22T05:39:08.074Z,96602.06
2023-03-22T05:41:36.543Z,96594.59
2023-03-22T05:44:03.579Z,96602.25
2023-03-22T05:46:30.115Z,96592.22
2023-03-22T05:48:56.605Z,96591.31
2023-03-22T05:51:25.930Z,96585.56
2023-03-22T05:53:53.581Z,96590.72
2023-03-22T05:56:24.129Z,96604.06
2023-03-22T05:58:51.730Z,96593.31
2023-03-22T06:01:20.424Z,96584.09
2023-03-22T06:03:48.470Z,96588.13
2023-03-22T06:06:15.770Z,96582.34
2023-03-22T06:08:42.680Z,96597.44
2023-03-22T06:11:09.943Z,96584.28
2023-03-22T06:13:37.498Z,96587.03
2023-03-22T06:16:05.595Z,96586.81
2023-03-22T06:18:33.013Z,96573.53
2023-03-22T06:21:00.219Z,96576.03
2023-03-22T06:23:26.851Z,96571.22
2023-03-22T06:25:53.341Z,96577.31
2023-03-22T06:28:19.835Z,96573.94
2023-03-22T06:30:46.239Z,96576.28
2023-03-22T06:33:13.269Z,96576.56
2023-03-22T06:35:39.789Z,96576.56
2023-03-22T06:38:06.499Z,96577.91
2023-03-22T06:40:32.964Z,96572.34
2023-03-22T06:43:03.537Z,96582.00
2023-03-22T06:45:33.409Z,96585.94
2023-03-22T06:48:00.937Z,96592.63
2023-03-22T06:50:28.742Z,96578.91
2023-03-22T06:52:55.213Z,96584.56
2023-03-22T06:55:22.371Z,96577.72
2023-03-22T06:57:48.883Z,96585.78
2023-03-22T07:00:16.004Z,96581.88
2023-03-22T07:02:42.441Z,96567.94
2023-03-22T07:05:09.442Z,96576.56
2023-03-22T07:07:35.998Z,96575.16
2023-03-22T07:10:02.437Z,96573.78
2023-03-22T07:12:28.894Z,96569.16
2023-03-22T07:14:55.613Z,96565.75
2023-03-22T07:17:22.040Z,96567.53
2023-03-22T07:19:48.882Z,96564.13
2023-03-22T07:22:15.499Z,96553.03
2023-03-22T07:24:53.842Z,96549.78
2023-03-22T07:27:23.130Z,96556.31
2023-03-22T07:29:49.612Z,96558.31
2023-03-22T07:32:16.392Z,96553.72
2023-03-22T07:34:44.194Z,96556.53
2023-03-22T07:37:10.782Z,96553.75
2023-03-22T07:39:37.327Z,96558.22
2023-03-22T07:42:04.070Z,96551.97
2023-03-22T07:44:30.899Z,96547.44
2023-03-22T07:46:57.757Z,96543.13
2023-03-22T07:49:24.360Z,96556.81
2023-03-22T07:51:50.941Z,96550.84
2023-03-22T07:54:32.421Z,96560.28
2023-03-22T07:57:01.091Z,96550.31
2023-03-22T07:59:27.552Z,96554.50
2023-03-22T08:01:54.058Z,96556.22
2023-03-22T08:04:22.502Z,96558.25
2023-03-22T08:06:49.812Z,96557.16
2023-03-22T08:09:17.028Z,96557.72
2023-03-22T08:11:43.871Z,96558.03
2023-03-22T08:14:10.367Z,96554.56
2023-03-22T08:16:38.339Z,96552.91
2023-03-22T08:19:04.853Z,96551.31
2023-03-22T08:21:31.370Z,96562.63
2023-03-22T08:23:57.845Z,96551.53
2023-03-22T08:26:24.403Z,96544.59
2023-03-22T08:28:50.835Z,96543.03
2023-03-22T08:31:18.281Z,96547.53
2023-03-22T08:33:45.198Z,96540.94
2023-03-22T08:36:15.101Z,96540.03
2023-03-22T08:38:42.519Z,96542.31
2023-03-22T08:41:09.014Z,96540.13
2023-03-22T08:43:35.412Z,96540.91
2023-03-22T08:46:02.033Z,96540.72
2023-03-22T08:48:31.830Z,96533.31
2023-03-22T08:50:58.518Z,96533.91
2023-03-22T08:53:24.978Z,96534.22
2023-03-22T08:55:51.536Z,96537.78
2023-03-22T08:58:19.979Z,96525.06
2023-03-22T09:00:49.452Z,96523.13
2023-03-22T09:03:16.825Z,96515.75
2023-03-22T09:05:44.700Z,96521.06
2023-03-22T09:08:18.646Z,96517.59
2023-03-22T09:10:52.573Z,96515.66
2023-03-22T09:13:19.758Z,96511.31
2023-03-22T09:15:47.093Z,96507.94
2023-03-22T09:18:14.268Z,96504.44
2023-03-22T09:20:40.966Z,96507.19
2023-03-22T09:23:07.720Z,96503.75
2023-03-22T09:25:34.313Z,96495.53
2023-03-22T09:28:00.930Z,96498.53
2023-03-22T09:30:27.435Z,96493.75
2023-03-22T09:32:54.464Z,96500.00
2023-03-22T09:35:21.046Z,96486.00
2023-03-22T09:37:49.317Z,96481.09
2023-03-22T09:40:17.504Z,96487.03
2023-03-22T09:42:48.238Z,96476.47
2023-03-22T09:45:30.511Z,96477.56
2023-03-22T09:47:59.507Z,96472.91
2023-03-22T09:50:30.382Z,96462.03
2023-03-22T09:52:57.437Z,96461.75
2023-03-22T09:55:32.086Z,96459.75
2023-03-22T09:58:01.598Z,96454.97
2023-03-22T10:00:36.930Z,96460.63
2023-03-22T10:03:25.512Z,96453.34
2023-03-22T10:06:19.821Z,96453.69
2023-03-22T10:09:14.267Z,96445.31
2023-03-22T10:11:52.368Z,96453.88
2023-03-22T10:14:35.797Z,96449.97
2023-03-22T10:17:06.981Z,96441.66
2023-03-22T10:19:41.576Z,96439.44
2023-03-22T10:22:14.824Z,96441.84
2023-03-22T10:24:45.410Z,96445.19
2023-03-22T10:27:17.089Z,96441.09
2023-03-22T10:29:51.678Z,96440.19
2023-03-22T10:32:22.511Z,96448.09
2023-03-22T10:34:49.466Z,96450.91
2023-03-22T10:37:33.369Z,96444.56
2023-03-22T10:40:06.250Z,96442.44
2023-03-22T10:42:36.837Z,96441.75
2023-03-22T10:45:14.483Z,96439.81
2023-03-22T10:47:50.204Z,96432.19
2023-03-22T10:50:28.445Z,96425.72
2023-03-22T10:53:07.361Z,96422.13
2023-03-22T10:55:40.029Z,96429.94
2023-03-22T10:58:16.833Z,96426.06
2023-03-22T11:00:54.629Z,96422.69
2023-03-22T11:03:31.545Z,96429.94
2023-03-22T11:06:08.073Z,96428.50
2023-03-22T11:08:53.264Z,96423.84
2023-03-22T11:11:24.801Z,96432.91
2023-03-22T11:14:06.819Z,96431.25
2023-03-22T11:16:54.917Z,96426.38
2023-03-22T11:19:50.111Z,96425.31
2023-03-22T11:22:34.876Z,96425.16
2023-03-22T11:25:02.533Z,96411.03
2023-03-22T11:27:33.034Z,96415.44
2023-03-22T11:30:24.321Z,96408.78
2023-03-22T11:33:14.370Z,96420.53
2023-03-22T11:35:46.428Z,96391.72
2023-03-22T11:38:44.861Z,96387.78
2023-03-22T11:41:27.879Z,96386.97
2023-03-22T11:43:56.120Z,96381.31
2023-03-22T11:46:23.539Z,96377.94
2023-03-22T11:48:52.546Z,96384.28
2023-03-22T11:51:29.742Z,96373.38
2023-03-22T11:54:20.660Z,96367.63
2023-03-22T11:56:48.942Z,96362.41
2023-03-22T11:59:17.117Z,96364.34
2023-03-22T12:01:49.618Z,96367.31
2023-03-22T12:04:20.824Z,96358.53
2023-03-22T12:06:48.558Z,96354.44
2023-03-22T12:09:37.097Z,96345.69
2023-03-22T12:12:06.681Z,96354.19
2023-03-22T12:14:49.674Z,96342.56
2023-03-22T12:17:40.843Z,96349.44
2023-03-22T12:20:14.456Z,96343.78
2023-03-22T12:22:45.761Z,96356.44
2023-03-22T12:25:17.699Z,96348.66
2023-03-22T12:27:48.258Z,96343.13
2023-03-22T12:30:26.778Z,96336.41
2023-03-22T12:33:20.664Z,96327.72
2023-03-22T12:35:48.612Z,96337.94
2023-03-22T12:38:39.317Z,96332.00
2023-03-22T12:41:11.357Z,96327.59
2023-03-22T12:43:40.816Z,96327.81
2023-03-22T12:46:16.731Z,96325.84
2023-03-22T12:48:47.670Z,96321.19
2023-03-22T12:51:14.904Z,96319.00
2023-03-22T12:54:02.073Z,96329.34
2023-03-22T12:56:50.623Z,96322.47
2023-03-22T12:59:20.582Z,96316.03
2023-03-22T13:02:01.183Z,96319.81
2023-03-22T13:04:31.697Z,96325.53
2023-03-22T13:07:19.543Z,96305.59
2023-03-22T13:09:50.678Z,96300.13
2023-03-22T13:12:17.039Z,96305.78
2023-03-22T13:14:52.598Z,96307.72
2023-03-22T13:17:25.480Z,96298.59
2023-03-22T13:20:07.999Z,96295.63
2023-03-22T13:22:37.741Z,96296.50
2023-03-22T13:25:13.439Z,96295.63
2023-03-22T13:27:46.392Z,96281.88
2023-03-22T13:30:32.457Z,96296.41
2023-03-22T13:33:08.492Z,96292.53
2023-03-22T13:35:52.578Z,96291.59
2023-03-22T13:38:28.388Z,96288.75
2023-03-22T13:41:09.555Z,96291.50
2023-03-22T13:43:39.023Z,96292.84
2023-03-22T13:46:17.520Z,96297.41
2023-03-22T13:48:52.240Z,96297.34
2023-03-22T13:51:21.890Z,96291.44
2023-03-22T13:54:24.007Z,96295.13
2023-03-22T13:57:01.004Z,96294.97
2023-03-22T13:59:27.744Z,96290.69
2023-03-22T14:02:22.155Z,96281.25
2023-03-22T14:04:50.228Z,96288.97
2023-03-22T14:07:26.521Z,96274.94
2023-03-22T14:09:57.627Z,96268.69
2023-03-22T14:12:28.420Z,96263.09
2023-03-22T14:15:03.660Z,96277.91
2023-03-22T14:17:35.679Z,96265.38
2023-03-22T14:20:10.223Z,96271.53
